createdAt,value
2023-03-28T00:00:04.531Z,95.40
2023-03-28T00:05:05.475Z,95.70
2023-03-28T00:10:07.982Z,95.60
2023-03-28T00:12:38.683Z,94.50
2023-03-28T00:15:12.583Z,95.70
2023-03-28T00:17:43.617Z,94.70
2023-03-28T00:20:16.211Z,93.50
2023-03-28T00:27:47.024Z,97.10
2023-03-28T00:30:19.884Z,98.00
2023-03-28T00:35:21.181Z,98.50
2023-03-28T00:40:22.171Z,99.90
2023-03-28T00:42:52.301Z,99.90
2023-03-28T00:45:27.273Z,97.60
2023-03-28T00:48:02.298Z,97.30
2023-03-28T00:50:34.286Z,99.90
2023-03-28T00:55:40.048Z,97.50
2023-03-28T00:58:13.623Z,98.70
2023-03-28T01:00:49.308Z,96.30
2023-03-28T01:03:22.786Z,96.30
2023-03-28T01:08:25.141Z,99.10
2023-03-28T01:13:30.090Z,96.20
2023-03-28T01:16:03.966Z,96.40
2023-03-28T01:18:35.796Z,97.70
2023-03-28T01:21:54.051Z,95.90
2023-03-28T01:25:02.166Z,98.20
2023-03-28T01:27:37.866Z,98.70
2023-03-28T01:30:34.465Z,96.30
2023-03-28T01:33:45.035Z,98.80
2023-03-28T01:36:48.968Z,99.10
2023-03-28T01:39:28.372Z,97.50
2023-03-28T01:42:05.259Z,98.90
2023-03-28T01:44:40.778Z,96.80
2023-03-28T01:47:18.805Z,99.30
2023-03-28T01:49:58.090Z,99.30
2023-03-28T01:52:38.224Z,97.10
2023-03-28T01:55:13.743Z,99.60
2023-03-28T01:57:48.488Z,97.40
2023-03-28T02:00:24.459Z,97.30
2023-03-28T02:03:00.853Z,99.90
2023-03-28T02:05:35.149Z,97.70
2023-03-28T02:08:11.371Z,97.70
2023-03-28T02:10:44.523Z,97.90
2023-03-28T02:13:20.168Z,98.00
2023-03-28T02:15:53.727Z,98.10
2023-03-28T02:18:30.913Z,98.10
2023-03-28T02:21:04.799Z,97.90
2023-03-28T02:23:42.752Z,97.80
2023-03-28T02:28:46.498Z,98.20
2023-03-28T02:31:17.410Z,99.90
2023-03-28T02:36:32.058Z,99.90
2023-03-28T02:39:24.617Z,99.90
2023-03-28T02:42:08.836Z,99.00
2023-03-28T02:44:56.287Z,99.90
2023-03-28T02:47:34.964Z,99.90
2023-03-28T02:50:16.334Z,99.90
2023-03-28T02:52:54.650Z,99.90
2023-03-28T02:55:31.404Z,99.90
2023-03-28T02:58:10.507Z,99.90
2023-03-28T03:00:43.138Z,99.90
2023-03-28T03:03:14.261Z,99.90
2023-03-28T03:08:14.791Z,99.90
2023-03-28T03:10:47.538Z,99.90
2023-03-28T03:15:48.235Z,99.90
2023-03-28T03:18:18.380Z,99.90
2023-03-28T03:20:50.514Z,99.90
2023-03-28T03:25:53.841Z,99.90
2023-03-28T03:30:55.284Z,99.90
2023-03-28T03:40:59.500Z,99.90
2023-03-28T03:46:01.674Z,99.90
2023-03-28T03:53:33.010Z,99.90
2023-03-28T03:56:07.626Z,99.90
2023-03-28T04:06:12.092Z,99.90
2023-03-28T04:08:41.900Z,99.90
2023-03-28T04:11:14.668Z,99.90
2023-03-28T04:13:44.778Z,99.90
2023-03-28T04:16:15.931Z,99.90
2023-03-28T04:21:22.430Z,99.90
2023-03-28T04:26:26.199Z,99.90
2023-03-28T04:28:56.559Z,99.90
2023-03-28T04:31:29.953Z,99.90
2023-03-28T04:34:00.632Z,99.90
2023-03-28T04:39:02.865Z,99.90
2023-03-28T04:41:36.849Z,99.90
2023-03-28T04:44:07.004Z,99.90
2023-03-28T04:46:37.358Z,99.90
2023-03-28T04:51:37.909Z,99.90
2023-03-28T04:56:41.028Z,99.90
2023-03-28T05:06:42.975Z,99.90
2023-03-28T05:09:13.383Z,99.90
2023-03-28T05:11:46.588Z,99.90
2023-03-28T05:14:16.750Z,99.90
2023-03-28T05:16:47.060Z,99.90
2023-03-28T05:19:18.278Z,99.90
2023-03-28T05:24:18.928Z,99.90
2023-03-28T05:26:51.700Z,99.90
2023-03-28T05:29:21.818Z,99.90
2023-03-28T05:41:56.653Z,99.90
2023-03-28T05:46:57.166Z,99.90
2023-03-28T05:49:27.334Z,99.90
2023-03-28T05:51:57.554Z,99.90
2023-03-28T05:57:00.803Z,99.90
2023-03-28T05:59:32.688Z,99.90
2023-03-28T06:02:03.683Z,99.90
2023-03-28T06:04:34.371Z,99.90
2023-03-28T06:07:05.463Z,99.90
2023-03-28T06:12:10.233Z,99.90
2023-03-28T06:14:40.464Z,99.90
2023-03-28T06:19:41.411Z,99.90
2023-03-28T06:27:15.212Z,99.90
2023-03-28T06:34:48.402Z,99.90
2023-03-28T06:37:18.662Z,99.90
2023-03-28T06:39:50.932Z,99.90
2023-03-28T06:42:24.174Z,99.90
2023-03-28T06:52:25.534Z,99.90
2023-03-28T06:57:29.143Z,99.90
2023-03-28T06:59:59.590Z,99.90
2023-03-28T07:05:00.159Z,99.90
2023-03-28T07:07:30.606Z,99.90
2023-03-28T07:10:00.854Z,99.90
2023-03-28T07:12:33.585Z,99.90
2023-03-28T07:15:03.794Z,99.90
2023-03-28T07:17:33.955Z,99.90
2023-03-28T07:20:04.617Z,99.90
2023-03-28T07:25:05.160Z,99.90
2023-03-28T07:27:37.938Z,99.90
2023-03-28T07:30:09.407Z,99.90
2023-03-28T07:32:51.224Z,99.90
2023-03-28T07:37:54.984Z,99.90
2023-03-28T07:42:58.079Z,99.90
2023-03-28T07:45:28.189Z,99.90
2023-03-28T07:47:58.432Z,99.90
2023-03-28T07:50:28.622Z,98.50
2023-03-28T07:55:35.089Z,98.90
2023-03-28T07:58:10.008Z,97.70
2023-03-28T08:03:11.413Z,99.50
2023-03-28T08:05:41.906Z,99.20
2023-03-28T08:08:12.455Z,96.00
2023-03-28T08:10:42.599Z,98.00
2023-03-28T08:13:15.593Z,96.00
2023-03-28T08:20:51.950Z,92.80
2023-03-28T08:23:22.102Z,91.60
2023-03-28T08:28:25.155Z,91.40
2023-03-28T08:30:55.306Z,91.90
2023-03-28T08:33:25.501Z,90.30
2023-03-28T08:35:56.284Z,90.60
2023-03-28T08:41:05.520Z,91.30
2023-03-28T08:44:13.686Z,91.10
2023-03-28T08:46:46.981Z,91.30
2023-03-28T08:49:20.811Z,88.50
2023-03-28T08:51:54.681Z,86.20
2023-03-28T08:54:29.324Z,88.00
2023-03-28T08:57:01.570Z,86.60
2023-03-28T08:59:44.663Z,88.70
2023-03-28T09:02:21.842Z,83.30
2023-03-28T09:04:53.548Z,84.60
2023-03-28T09:07:35.312Z,80.00
2023-03-28T09:10:17.054Z,80.50
2023-03-28T09:13:01.844Z,74.50
2023-03-28T09:15:46.910Z,67.40
2023-03-28T09:18:52.312Z,64.70
2023-03-28T09:21:31.380Z,60.00
2023-03-28T09:24:20.718Z,58.00
2023-03-28T09:26:55.974Z,55.90
2023-03-28T09:29:28.943Z,56.10
2023-03-28T09:32:06.412Z,57.00
2023-03-28T09:34:40.589Z,56.40
2023-03-28T09:37:24.733Z,54.90
2023-03-28T09:39:54.972Z,54.70
2023-03-28T09:42:34.428Z,52.60
2023-03-28T09:45:11.880Z,54.30
2023-03-28T09:47:49.428Z,50.40
2023-03-28T09:50:21.503Z,54.20
2023-03-28T09:52:53.797Z,54.20
2023-03-28T09:55:26.480Z,53.80
2023-03-28T09:58:08.592Z,54.00
2023-03-28T10:00:40.952Z,53.30
2023-03-28T10:03:23.523Z,52.70
2023-03-28T10:05:54.552Z,52.70
2023-03-28T10:08:32.947Z,55.90
2023-03-28T10:11:07.017Z,56.90
2023-03-28T10:13:41.098Z,61.40
2023-03-28T10:16:13.548Z,59.00
2023-03-28T10:18:46.925Z,59.10
2023-03-28T10:21:23.721Z,62.30
2023-03-28T10:23:59.609Z,63.50
2023-03-28T10:26:30.924Z,64.40
2023-03-28T10:29:04.732Z,62.00
2023-03-28T10:31:36.498Z,65.10
2023-03-28T10:34:09.654Z,65.80
2023-03-28T10:36:44.911Z,63.10
2023-03-28T10:39:26.116Z,66.90
2023-03-28T10:41:57.284Z,65.70
2023-03-28T10:44:32.543Z,62.80
2023-03-28T10:47:05.526Z,64.90
2023-03-28T10:49:46.000Z,61.60
2023-03-28T10:52:25.841Z,62.30
2023-03-28T10:55:09.990Z,67.10
2023-03-28T10:57:48.570Z,61.80
2023-03-28T11:00:24.808Z,65.30
2023-03-28T11:03:10.224Z,65.50
2023-03-28T11:06:08.093Z,64.40
2023-03-28T11:08:57.173Z,64.80
2023-03-28T11:11:48.633Z,62.70
2023-03-28T11:14:28.900Z,60.00
2023-03-28T11:17:05.965Z,63.70
2023-03-28T11:19:58.151Z,59.70
2023-03-28T11:22:41.547Z,61.00
2023-03-28T11:25:25.029Z,61.80
2023-03-28T11:28:02.297Z,63.00
2023-03-28T11:30:36.431Z,60.30
2023-03-28T11:33:14.290Z,59.50
2023-03-28T11:35:50.493Z,58.60
2023-03-28T11:38:27.680Z,58.60
2023-03-28T11:41:02.593Z,59.70
2023-03-28T11:43:38.277Z,60.80
2023-03-28T11:46:12.402Z,59.40
2023-03-28T11:48:47.782Z,63.30
2023-03-28T11:51:22.161Z,63.10
2023-03-28T11:54:00.423Z,59.60
2023-03-28T11:56:43.891Z,63.80
2023-03-28T11:59:17.590Z,64.20
2023-03-28T12:01:52.259Z,64.00
2023-03-28T12:04:30.946Z,62.00
2023-03-28T12:07:14.068Z,67.10
2023-03-28T12:10:00.568Z,67.50
2023-03-28T12:12:34.027Z,66.30
2023-03-28T12:15:08.182Z,63.60
2023-03-28T12:17:43.551Z,65.50
2023-03-28T12:20:21.997Z,67.00
2023-03-28T12:22:58.158Z,65.60
2023-03-28T12:25:37.970Z,65.20
2023-03-28T12:28:13.758Z,63.80
2023-03-28T12:30:59.431Z,62.70
2023-03-28T12:33:43.539Z,64.20
2023-03-28T12:36:20.771Z,63.70
2023-03-28T12:38:58.822Z,62.80
2023-03-28T12:41:36.538Z,63.30
2023-03-28T12:44:08.272Z,61.20
2023-03-28T12:46:46.315Z,63.40
2023-03-28T12:49:21.763Z,62.90
2023-03-28T12:51:56.306Z,62.50
2023-03-28T12:54:30.000Z,64.70
2023-03-28T12:57:07.735Z,65.40
2023-03-28T13:00:09.752Z,65.90
2023-03-28T13:02:50.281Z,66.00
2023-03-28T13:05:28.062Z,65.80
2023-03-28T13:08:01.942Z,66.50
2023-03-28T13:10:38.384Z,65.80
2023-03-28T13:13:28.928Z,67.20
2023-03-28T13:16:08.079Z,66.10
2023-03-28T13:21:09.540Z,70.00
2023-03-28T13:23:50.322Z,71.60
2023-03-28T13:26:22.736Z,70.10
2023-03-28T13:29:03.063Z,72.40
2023-03-28T13:34:06.201Z,69.10
2023-03-28T13:36:36.965Z,71.00
2023-03-28T13:39:25.447Z,70.70
2023-03-28T13:42:03.714Z,71.40
2023-03-28T13:44:46.099Z,69.00
2023-03-28T13:47:26.932Z,70.40
2023-03-28T13:50:02.886Z,70.20
2023-03-28T13:52:33.123Z,72.40
2023-03-28T13:55:18.691Z,69.00
2023-03-28T13:57:49.162Z,70.90
2023-03-28T14:00:26.197Z,68.70
2023-03-28T14:03:03.536Z,72.50
2023-03-28T14:05:36.169Z,69.80
2023-03-28T14:08:25.771Z,73.50
2023-03-28T14:10:57.180Z,72.00
2023-03-28T14:13:31.378Z,71.30
2023-03-28T14:16:04.344Z,70.00
2023-03-28T14:18:38.638Z,73.90
2023-03-28T14:21:10.386Z,74.10
2023-03-28T14:23:42.329Z,76.00
2023-03-28T14:26:21.479Z,72.90
2023-03-28T14:28:54.393Z,71.20
2023-03-28T14:31:38.701Z,73.20
2023-03-28T14:34:16.715Z,73.30
2023-03-28T14:37:01.438Z,74.90
2023-03-28T14:39:33.020Z,75.20
2023-03-28T14:42:05.892Z,74.30
2023-03-28T14:44:40.584Z,74.30
2023-03-28T14:47:18.195Z,74.20
2023-03-28T14:49:48.698Z,77.30
2023-03-28T14:54:51.079Z,74.90
2023-03-28T14:57:22.065Z,71.70
2023-03-28T14:59:53.641Z,74.20
2023-03-28T15:02:31.220Z,74.20
2023-03-28T15:05:07.244Z,78.40
2023-03-28T15:07:39.429Z,74.70
2023-03-28T15:10:12.995Z,75.20
2023-03-28T15:12:47.509Z,76.00
2023-03-28T15:15:22.283Z,74.00
2023-03-28T15:17:57.509Z,73.30
2023-03-28T15:20:32.198Z,74.20
2023-03-28T15:23:05.689Z,75.60
2023-03-28T15:25:37.464Z,74.20
2023-03-28T15:28:11.084Z,74.80
2023-03-28T15:30:45.536Z,78.80
2023-03-28T15:33:21.842Z,79.20
2023-03-28T15:35:52.299Z,78.50
2023-03-28T15:38:25.226Z,75.30
2023-03-28T15:41:11.591Z,77.90
2023-03-28T15:43:44.059Z,74.00
2023-03-28T15:46:16.424Z,74.70
2023-03-28T15:48:49.604Z,74.40
2023-03-28T15:51:21.778Z,74.80
2023-03-28T15:53:53.746Z,76.20
2023-03-28T15:56:27.976Z,75.20
2023-03-28T15:59:02.114Z,77.40
2023-03-28T16:01:34.642Z,76.30
2023-03-28T16:04:31.331Z,79.90
2023-03-28T16:07:14.163Z,78.30
2023-03-28T16:09:44.400Z,78.30
2023-03-28T16:12:16.380Z,77.60
2023-03-28T16:14:49.497Z,78.30
2023-03-28T16:17:19.672Z,77.60
2023-03-28T16:19:52.424Z,81.00
2023-03-28T16:22:23.367Z,83.50
2023-03-28T16:24:55.157Z,84.00
2023-03-28T16:27:25.573Z,86.40
2023-03-28T16:29:56.955Z,85.50
2023-03-28T16:32:27.131Z,83.70
2023-03-28T16:34:59.931Z,82.00
2023-03-28T16:37:30.135Z,85.00
2023-03-28T16:40:02.785Z,90.80
2023-03-28T16:50:09.420Z,95.20
2023-03-28T16:52:40.658Z,99.90
2023-03-28T16:55:12.641Z,99.40
2023-03-28T17:00:18.276Z,99.90
2023-03-28T17:02:49.056Z,99.90
2023-03-28T17:05:22.218Z,99.90
2023-03-28T17:07:52.312Z,99.90
2023-03-28T17:10:22.919Z,99.90
2023-03-28T17:17:53.966Z,99.90
2023-03-28T17:20:27.035Z,99.90
2023-03-28T17:22:57.386Z,99.90
2023-03-28T17:27:57.894Z,99.90
2023-03-28T17:30:28.118Z,99.90
2023-03-28T17:35:31.384Z,99.90
2023-03-28T17:38:01.539Z,99.90
2023-03-28T17:40:31.893Z,99.90
2023-03-28T17:43:02.100Z,99.90
2023-03-28T17:45:32.287Z,99.90
2023-03-28T17:48:02.789Z,99.90
2023-03-28T17:50:35.606Z,99.90
2023-03-28T17:55:37.153Z,99.90
2023-03-28T18:05:42.271Z,99.90
2023-03-28T18:10:42.992Z,99.90
2023-03-28T18:13:13.154Z,99.90
2023-03-28T18:15:44.041Z,99.90
2023-03-28T18:18:14.774Z,99.90
2023-03-28T18:20:49.933Z,99.90
2023-03-28T18:25:53.141Z,99.90
2023-03-28T18:28:24.373Z,99.90
2023-03-28T18:30:54.585Z,99.90
2023-03-28T18:33:26.114Z,99.90
2023-03-28T18:35:59.252Z,99.90
2023-03-28T18:43:30.507Z,99.90
2023-03-28T18:48:32.109Z,99.90
2023-03-28T18:51:06.592Z,99.90
2023-03-28T18:53:38.001Z,99.90
2023-03-28T18:56:08.219Z,99.90
2023-03-28T18:58:39.224Z,99.90
2023-03-28T19:01:12.038Z,99.90
2023-03-28T19:06:17.959Z,99.90
2023-03-28T19:11:20.913Z,99.90
2023-03-28T19:13:51.058Z,99.90
2023-03-28T19:16:21.531Z,99.90
2023-03-28T19:18:51.830Z,99.90
2023-03-28T19:21:24.815Z,99.90
2023-03-28T19:28:56.636Z,99.90
2023-03-28T19:33:57.415Z,99.90
2023-03-28T19:36:30.455Z,99.90
2023-03-28T19:39:00.581Z,99.90
2023-03-28T19:41:30.895Z,99.90
2023-03-28T19:46:35.411Z,99.90
2023-03-28T19:49:09.357Z,99.90
2023-03-28T19:51:41.890Z,99.90
2023-03-28T19:54:12.188Z,99.90
2023-03-28T19:59:13.175Z,99.90
2023-03-28T20:01:43.555Z,99.90
2023-03-28T20:06:48.975Z,99.90
2023-03-28T20:09:19.147Z,99.90
2023-03-28T20:11:49.357Z,99.90
2023-03-28T20:14:21.693Z,99.90
2023-03-28T20:16:52.135Z,99.90
2023-03-28T20:21:56.039Z,99.90
2023-03-28T20:24:26.195Z,99.90
2023-03-28T20:26:58.692Z,99.90
2023-03-28T20:34:33.232Z,99.90
2023-03-28T20:37:06.331Z,99.90
2023-03-28T20:39:37.238Z,99.90
2023-03-28T20:42:08.506Z,99.90
2023-03-28T20:44:38.853Z,99.90
2023-03-28T20:47:10.808Z,99.90
2023-03-28T20:49:46.603Z,99.90
2023-03-28T20:52:19.700Z,99.90
2023-03-28T20:54:50.176Z,99.90
2023-03-28T20:57:21.743Z,99.90
2023-03-28T21:02:26.797Z,99.90
2023-03-28T21:04:56.788Z,99.90
2023-03-28T21:07:29.627Z,99.90
2023-03-28T21:10:00.596Z,99.90
2023-03-28T21:12:30.805Z,99.90
2023-03-28T21:15:00.895Z,99.90
2023-03-28T21:17:31.319Z,99.90
2023-03-28T21:20:04.177Z,99.90
2023-03-28T21:22:38.232Z,99.90
2023-03-28T21:25:10.712Z,99.90
2023-03-28T21:27:41.473Z,99.90
2023-03-28T21:30:14.065Z,99.90
2023-03-28T21:32:44.463Z,99.90
2023-03-28T21:35:15.523Z,99.90
2023-03-28T21:37:48.400Z,99.90
2023-03-28T21:40:18.951Z,99.90
2023-03-28T21:42:49.073Z,99.90
2023-03-28T21:45:19.468Z,99.90
2023-03-28T21:47:51.150Z,99.90
2023-03-28T21:57:55.299Z,99.90
2023-03-28T22:02:56.277Z,99.90
2023-03-28T22:05:29.552Z,99.90
2023-03-28T22:08:02.887Z,99.90
2023-03-28T22:10:34.169Z,99.90
2023-03-28T22:13:06.998Z,99.90
2023-03-28T22:15:37.168Z,99.90
2023-03-28T22:18:09.477Z,99.90
2023-03-28T22:20:43.882Z,99.90
2023-03-28T22:23:16.774Z,99.90
2023-03-28T22:25:46.981Z,99.90
2023-03-28T22:30:49.230Z,99.90
2023-03-28T22:33:19.613Z,99.90
2023-03-28T22:35:50.278Z,99.90
2023-03-28T22:38:23.138Z,99.90
2023-03-28T22:43:25.305Z,99.90
2023-03-28T22:48:30.186Z,99.90
2023-03-28T22:51:02.302Z,99.90
2023-03-28T22:53:36.260Z,99.90
2023-03-28T22:56:06.877Z,99.90
2023-03-28T23:01:07.859Z,99.90
2023-03-28T23:03:38.393Z,99.90
2023-03-28T23:06:09.212Z,99.90
2023-03-28T23:08:42.133Z,99.90
2023-03-28T23:13:42.926Z,99.90
2023-03-28T23:16:13.236Z,99.90
2023-03-28T23:21:13.754Z,99.90
2023-03-28T23:23:46.742Z,99.90
2023-03-28T23:28:48.570Z,99.90
2023-03-28T23:31:19.006Z,99.90
2023-03-28T23:33:49.257Z,99.90
2023-03-28T23:38:54.048Z,99.90
2023-03-28T23:43:54.748Z,99.90
2023-03-28T23:46:25.200Z,99.90
2023-03-28T23:48:55.437Z,99.90
2023-03-28T23:51:26.209Z,99.90
2023-03-28T23:53:59.342Z,99.90
2023-03-28T23:59:01.725Z,99.90
